^^
Grace C. Lehan Memorial Weather Station Historical Data
Daily Summary for June 16, 2021 Units:  Metric    English   Both
Daily Weekly Monthly Yearly
  High: Low: Average:
Temperature: 24.6 °C 15.5 °C 20.1 °C
Dew Point: 15.1 °C 8.7 °C 12.2 °C
Humidity: 83% 38.4% 63%
Wind Speed: 15.6km/h 0km/h 3.5km/h
Wind Gust: 29km/h - -
Wind- - WNW
Pressure: 1008.7 hPa 1005.3 hPa -
Precipitation: 0 mm    
 
 
Tabular Data for June 16, 2021
Time Temperature Dew Point Pressure Wind Wind Speed Wind Gust Humidity Rainfall Rate (Hourly) solar
00:04 18.3 °C 15.1 °C 1006.3 hPa Calm   8 km/h 81% 0 mm 0 W/m2
00:09 18.3 °C 15 °C 1006.3 hPa Calm   3.2 km/h 81% 0 mm 0 W/m2
00:14 18.2 °C 15.1 °C 1006.3 hPa Calm   3.2 km/h 82% 0 mm 0 W/m2
00:19 18.2 °C 15.1 °C 1006.3 hPa Calm   3.2 km/h 82% 0 mm 0 W/m2
00:24 18.1 °C 15 °C 1006.3 hPa Calm   3.2 km/h 82% 0 mm 0 W/m2
00:29 18 °C 14.9 °C 1006 hPa Calm   3.2 km/h 82% 0 mm 0 W/m2
00:34 17.9 °C 14.9 °C 1006.3 hPa WNW 0.2 km/h 4.8 km/h 82.6% 0 mm 0 W/m2
00:39 17.8 °C 14.9 °C 1006.3 hPa Calm   4.8 km/h 83% 0 mm 0 W/m2
00:44 17.8 °C 14.9 °C 1006.3 hPa WNW 1.6 km/h 8 km/h 83% 0 mm 0 W/m2
00:49 17.8 °C 14.8 °C 1006.3 hPa WNW 1.1 km/h 9.7 km/h 83% 0 mm 0 W/m2
00:54 17.7 °C 14.8 °C 1006.3 hPa WNW 0.6 km/h 9.7 km/h 83% 0 mm 0 W/m2
00:59 17.7 °C 14.8 °C 1006.3 hPa WNW 0.5 km/h 9.7 km/h 83% 0 mm 0 W/m2
01:04 17.7 °C 14.8 °C 1006.3 hPa NW 2.1 km/h 16.1 km/h 83% 0 mm 0 W/m2
01:09 17.7 °C 14.8 °C 1006 hPa WNW 1.1 km/h 16.1 km/h 82.9% 0 mm 0 W/m2
01:14 17.7 °C 14.7 °C 1006 hPa NW 0.3 km/h 16.1 km/h 82.3% 0 mm 0 W/m2
01:19 17.7 °C 14.7 °C 1006 hPa NW 0.8 km/h 16.1 km/h 82.6% 0 mm 0 W/m2
01:24 17.7 °C 14.6 °C 1006 hPa NW 0.8 km/h 16.1 km/h 82% 0 mm 0 W/m2
01:29 17.7 °C 14.6 °C 1005.6 hPa WNW 1.1 km/h 16.1 km/h 82% 0 mm 0 W/m2
01:34 17.7 °C 14.6 °C 1005.6 hPa WNW 1 km/h 16.1 km/h 82% 0 mm 0 W/m2
01:39 17.7 °C 14.6 °C 1005.6 hPa WNW 0.5 km/h 8 km/h 82% 0 mm 0 W/m2
01:44 17.7 °C 14.6 °C 1005.6 hPa Calm   8 km/h 82% 0 mm 0 W/m2
01:49 17.6 °C 14.6 °C 1005.6 hPa WNW 0.2 km/h 8 km/h 82% 0 mm 0 W/m2
01:54 17.6 °C 14.5 °C 1005.6 hPa WNW 0.6 km/h 8 km/h 82% 0 mm 0 W/m2
01:59 17.6 °C 14.4 °C 1005.6 hPa Calm   8 km/h 82% 0 mm 0 W/m2
02:04 17.5 °C 14.4 °C 1005.6 hPa Calm   8 km/h 82% 0 mm 0 W/m2
02:09 17.4 °C 14.3 °C 1005.6 hPa Calm     82% 0 mm 0 W/m2
02:14 17.4 °C 14.3 °C 1005.6 hPa Calm     82% 0 mm 0 W/m2
02:19 17.3 °C 14.2 °C 1005.6 hPa Calm     82% 0 mm 0 W/m2
02:24 17.2 °C 14.1 °C 1005.6 hPa WNW 1.3 km/h 9.7 km/h 82% 0 mm 0 W/m2
02:29 17.2 °C 14.1 °C 1005.6 hPa NW 0.2 km/h 9.7 km/h 82% 0 mm 0 W/m2
02:34 17.1 °C 14 °C 1005.3 hPa NW 1.3 km/h 9.7 km/h 82% 0 mm 0 W/m2
02:39 17.1 °C 13.9 °C 1005.3 hPa NW 0.2 km/h 6.4 km/h 82% 0 mm 0 W/m2
02:44 17.1 °C 13.9 °C 1005.3 hPa Calm   6.4 km/h 82% 0 mm 0 W/m2
02:49 17.1 °C 13.8 °C 1005.3 hPa NW 0.2 km/h 6.4 km/h 81.2% 0 mm 0 W/m2
02:54 17 °C 13.7 °C 1005.6 hPa NW 0.5 km/h 6.4 km/h 81% 0 mm 0 W/m2
02:59 17 °C 13.7 °C 1005.6 hPa NNW 1.1 km/h 9.7 km/h 81% 0 mm 0 W/m2
03:04 16.9 °C 13.7 °C 1005.6 hPa Calm   9.7 km/h 80.9% 0 mm 0 W/m2
03:09 16.9 °C 13.4 °C 1005.6 hPa WNW 1 km/h 8 km/h 80% 0 mm 0 W/m2
03:14 16.8 °C 13.4 °C 1005.6 hPa WNW 0.6 km/h 8 km/h 80% 0 mm 0 W/m2
03:19 16.8 °C 13.3 °C 1005.6 hPa WNW 0.5 km/h 8 km/h 80% 0 mm 0 W/m2
03:24 16.7 °C 13.3 °C 1006 hPa Calm   8 km/h 80% 0 mm 0 W/m2
03:29 16.7 °C 13.2 °C 1006 hPa Calm   8 km/h 80% 0 mm 0 W/m2
03:34 16.7 °C 13.1 °C 1006 hPa Calm   8 km/h 79.3% 0 mm 0 W/m2
03:39 16.6 °C 12.9 °C 1005.6 hPa Calm     79% 0 mm 0 W/m2
03:44 16.5 °C 12.8 °C 1005.6 hPa Calm   1.6 km/h 79% 0 mm 0 W/m2
03:49 16.4 °C 12.8 °C 1006 hPa Calm   1.6 km/h 79% 0 mm 0 W/m2
03:54 16.3 °C 12.7 °C 1006 hPa WNW 1.1 km/h 11.3 km/h 79% 0 mm 0 W/m2
03:59 16.3 °C 12.6 °C 1006 hPa WNW 1.8 km/h 11.3 km/h 78.9% 0 mm 0 W/m2
04:09 16.1 °C 12.1 °C 1006 hPa NW 3.9 km/h 16.1 km/h 77% 0 mm 0 W/m2
04:14 16.1 °C 11.8 °C 1006 hPa NW 1.6 km/h 16.1 km/h 76% 0 mm 0 W/m2
04:19 16.1 °C 11.8 °C 1006 hPa WNW 2.1 km/h 16.1 km/h 75.8% 0 mm 0 W/m2
04:24 16.1 °C 11.6 °C 1006 hPa NW 1.8 km/h 16.1 km/h 75% 0 mm 0 W/m2
04:29 16.1 °C 11.6 °C 1006 hPa WNW 2.4 km/h 16.1 km/h 75% 0 mm 0 W/m2
04:33 16 °C 11.6 °C 1006 hPa NW 3.5 km/h 17.7 km/h 75% 0 mm 0 W/m2
04:39 16 °C 11.6 °C 1006 hPa WNW 4 km/h 17.7 km/h 74.8% 0 mm 0 W/m2
04:44 16 °C 11.4 °C 1006 hPa WNW 2.1 km/h 17.7 km/h 74.3% 0 mm 0 W/m2
04:49 15.9 °C 11.3 °C 1006 hPa WNW 0.3 km/h 17.7 km/h 74% 0 mm 0 W/m2
04:54 15.9 °C 11.3 °C 1006 hPa NW 1.4 km/h 17.7 km/h 74% 0 mm 0 W/m2
04:59 15.9 °C 11.2 °C 1006 hPa NW 2.3 km/h 17.7 km/h 74% 0 mm 0 W/m2
05:04 15.8 °C 11.2 °C 1006 hPa WNW 0.8 km/h 17.7 km/h 74% 0 mm 0 W/m2
05:09 15.7 °C 11.2 °C 1006 hPa WNW 1.4 km/h 9.7 km/h 74.5% 0 mm 0 W/m2
05:14 15.7 °C 11.2 °C 1006.3 hPa WNW 2.3 km/h 9.7 km/h 74.7% 0 mm 0 W/m2
05:19 15.6 °C 11.2 °C 1006.3 hPa WNW 2.4 km/h 17.7 km/h 74.8% 0 mm 0 W/m2
05:24 15.6 °C 11.2 °C 1006.3 hPa NW 1.4 km/h 17.7 km/h 75% 0 mm 0 W/m2
05:29 15.6 °C 11.2 °C 1006.3 hPa NW 1.4 km/h 17.7 km/h 75% 0 mm 5 W/m2
05:34 15.5 °C 11.1 °C 1006.7 hPa West 1.9 km/h 17.7 km/h 75% 0 mm 7 W/m2
05:39 15.5 °C 11.1 °C 1006.7 hPa WNW 3.2 km/h 11.3 km/h 75.1% 0 mm 9 W/m2
05:44 15.5 °C 10.9 °C 1006.7 hPa NW 3.5 km/h 16.1 km/h 74% 0 mm 11 W/m2
05:49 15.5 °C 10.9 °C 1007 hPa WNW 3.4 km/h 17.7 km/h 74% 0 mm 12 W/m2
05:54 15.6 °C 10.9 °C 1007 hPa NW 2.1 km/h 17.7 km/h 74% 0 mm 16 W/m2
05:59 15.6 °C 11 °C 1007 hPa NW 2.7 km/h 17.7 km/h 74% 0 mm 16 W/m2
06:04 15.7 °C 11.1 °C 1007 hPa NNW 2.1 km/h 17.7 km/h 74% 0 mm 18 W/m2
06:09 15.7 °C 11.1 °C 1007 hPa Calm   8 km/h 74.2% 0 mm 19 W/m2
06:14 15.7 °C 11.1 °C 1007 hPa NNW 0.5 km/h 8 km/h 74% 0 mm 21 W/m2
06:19 15.8 °C 11.2 °C 1007 hPa NNW 0.5 km/h 8 km/h 74% 0 mm 21 W/m2
06:24 15.8 °C 11.3 °C 1007.3 hPa NNW 0.3 km/h 8 km/h 74.5% 0 mm 26 W/m2
06:29 15.9 °C 11.5 °C 1007.3 hPa NNW 0.2 km/h 8 km/h 74.8% 0 mm 35 W/m2
06:34 16.1 °C 11.6 °C 1007.3 hPa West 0.8 km/h 14.5 km/h 74.9% 0 mm 46 W/m2
06:39 16.2 °C 11.7 °C 1007.3 hPa Calm   14.5 km/h 75% 0 mm 49 W/m2
06:44 16.4 °C 12.1 °C 1007.3 hPa West 0.6 km/h 14.5 km/h 75.2% 0 mm 60 W/m2
06:49 16.8 °C 12.2 °C 1007.3 hPa North 0.5 km/h 14.5 km/h 74.2% 0 mm 67 W/m2
06:54 17.3 °C 12.5 °C 1007.3 hPa NW 2.4 km/h 14.5 km/h 73.4% 0 mm 69 W/m2
06:59 17.8 °C 12.7 °C 1007.3 hPa Calm   14.5 km/h 72.1% 0 mm 70 W/m2
07:04 18.2 °C 13.1 °C 1007.7 hPa Calm   14.5 km/h 72% 0 mm 72 W/m2
07:09 18.6 °C 13.2 °C 1007.7 hPa NNW 1 km/h 8 km/h 70.7% 0 mm 74 W/m2
07:14 18.9 °C 13.2 °C 1007.7 hPa Calm   8 km/h 69.2% 0 mm 76 W/m2
07:19 19.3 °C 13.5 °C 1007.7 hPa NNW 0.2 km/h 8 km/h 69.2% 0 mm 77 W/m2
07:24 19.6 °C 13.4 °C 1007.7 hPa NNW 1.1 km/h 17.7 km/h 67.9% 0 mm 304 W/m2
07:29 19.7 °C 13.3 °C 1007.7 hPa NW 2.3 km/h 17.7 km/h 66.5% 0 mm 350 W/m2
07:34 19.9 °C 13.6 °C 1007.7 hPa NW 3.2 km/h 17.7 km/h 66.8% 0 mm 364 W/m2
07:39 20.1 °C 13.4 °C 1007.7 hPa WNW 4.3 km/h 17.7 km/h 65.7% 0 mm 383 W/m2
07:44 20.1 °C 13.4 °C 1007.7 hPa NW 4 km/h 19.3 km/h 65.2% 0 mm 408 W/m2
07:49 20.3 °C 13.4 °C 1007.7 hPa NW 1.3 km/h 19.3 km/h 64.9% 0 mm 424 W/m2
07:54 20.5 °C 13.9 °C 1007.7 hPa NNW 0.5 km/h 19.3 km/h 66.2% 0 mm 441 W/m2
07:59 20.8 °C 13.7 °C 1007.7 hPa NW 0.6 km/h 19.3 km/h 64.1% 0 mm 457 W/m2
08:00 20.9 °C 13.9 °C 1007.7 hPa Calm   19.3 km/h 64% 0 mm 459 W/m2
08:09 21.2 °C 13.9 °C 1007.7 hPa NW 6.8 km/h 17.7 km/h 62.9% 0 mm 490 W/m2
08:14 21.1 °C 13.6 °C 1007.7 hPa WNW 3.7 km/h 19.3 km/h 62.3% 0 mm 506 W/m2
08:19 21.1 °C 14.2 °C 1007.7 hPa NNW 0.3 km/h 19.3 km/h 64.5% 0 mm 524 W/m2
08:24 21.2 °C 14.2 °C 1007.7 hPa NW 1.6 km/h 19.3 km/h 64.2% 0 mm 543 W/m2
08:29 21.4 °C 14.1 °C 1007.7 hPa West 2.6 km/h 19.3 km/h 62.9% 0 mm 561 W/m2
08:34 21.6 °C 14.3 °C 1007.7 hPa WNW 3.5 km/h 19.3 km/h 63.2% 0 mm 575 W/m2
08:39 21.7 °C 13.9 °C 1007.7 hPa WNW 6.8 km/h 17.7 km/h 61.2% 0 mm 594 W/m2
08:44 21.7 °C 13.8 °C 1007.7 hPa WNW 6.3 km/h 22.5 km/h 60.6% 0 mm 608 W/m2
08:49 21.8 °C 14 °C 1007.7 hPa WNW 4.8 km/h 22.5 km/h 61% 0 mm 626 W/m2
08:54 22.1 °C 14.2 °C 1007.3 hPa WNW 8 km/h 24.1 km/h 61% 0 mm 640 W/m2
08:59 22.3 °C 14 °C 1007.7 hPa WNW 7.2 km/h 24.1 km/h 59.5% 0 mm 656 W/m2
09:04 22.3 °C 13.8 °C 1007.7 hPa WNW 6.3 km/h 24.1 km/h 58.7% 0 mm 670 W/m2
09:09 22.4 °C 14.2 °C 1007.7 hPa NW 4.8 km/h 17.7 km/h 59.5% 0 mm 686 W/m2
09:14 22.5 °C 14.2 °C 1007.7 hPa NW 5.6 km/h 27.4 km/h 59.2% 0 mm 696 W/m2
09:19 22.7 °C 13.9 °C 1007.7 hPa WNW 6.6 km/h 27.4 km/h 57.6% 0 mm 712 W/m2
09:24 22.8 °C 13.8 °C 1007.7 hPa NW 9.5 km/h 27.4 km/h 56.7% 0 mm 726 W/m2
09:29 22.7 °C 13.7 °C 1008 hPa NW 5.8 km/h 27.4 km/h 56.8% 0 mm 740 W/m2
09:34 22.7 °C 14.1 °C 1008 hPa WNW 4 km/h 27.4 km/h 58% 0 mm 752 W/m2
09:39 22.8 °C 14 °C 1008 hPa NW 6 km/h 25.7 km/h 57.4% 0 mm 766 W/m2
09:44 23 °C 13.8 °C 1008 hPa WNW 6.4 km/h 25.7 km/h 56.2% 0 mm 779 W/m2
09:49 23.2 °C 14.3 °C 1008 hPa NW 4.7 km/h 25.7 km/h 57.4% 0 mm 793 W/m2
09:54 23.4 °C 14.1 °C 1008 hPa NW 4.7 km/h 25.7 km/h 55.8% 0 mm 809 W/m2
09:59 23.4 °C 13 °C 1008 hPa NW 8 km/h 25.7 km/h 51.9% 0 mm 824 W/m2
10:04 23.3 °C 12.7 °C 1008.4 hPa WNW 8.4 km/h 25.7 km/h 51% 0 mm 840 W/m2
10:09 23.4 °C 12.7 °C 1008.4 hPa WNW 8.2 km/h 24.1 km/h 51% 0 mm 851 W/m2
10:14 23.3 °C 12.3 °C 1008.4 hPa WNW 8.2 km/h 24.1 km/h 49.8% 0 mm 854 W/m2
10:19 23.2 °C 12.9 °C 1008.4 hPa NW 4.5 km/h 24.1 km/h 52.4% 0 mm 867 W/m2
10:24 23.5 °C 13.4 °C 1008.4 hPa WNW 2.9 km/h 24.1 km/h 53.2% 0 mm 877 W/m2
10:29 23.7 °C 13.5 °C 1008.4 hPa WNW 2.6 km/h 24.1 km/h 52.7% 0 mm 914 W/m2
10:34 24 °C 13 °C 1008.4 hPa WNW 8.7 km/h 25.7 km/h 50.3% 0 mm 907 W/m2
10:39 24 °C 12.3 °C 1008.4 hPa WNW 8 km/h 25.7 km/h 47.9% 0 mm 932 W/m2
10:44 23.9 °C 11.5 °C 1008.4 hPa WNW 9.8 km/h 29 km/h 45.6% 0 mm 983 W/m2
10:49 23.6 °C 10.4 °C 1008.4 hPa WNW 11.6 km/h 29 km/h 43.4% 0 mm 983 W/m2
10:54 23.4 °C 10.1 °C 1008.4 hPa WNW 8.5 km/h 29 km/h 42.9% 0 mm 970 W/m2
10:59 23.4 °C 10.2 °C 1008.4 hPa NW 7.7 km/h 29 km/h 43.1% 0 mm 939 W/m2
11:04 23.6 °C 9.9 °C 1008.4 hPa NW 7.6 km/h 29 km/h 41.8% 0 mm 935 W/m2
11:09 23.7 °C 9.6 °C 1008.4 hPa WNW 8.4 km/h 27.4 km/h 40.7% 0 mm 942 W/m2
11:14 23.7 °C 10.1 °C 1008.4 hPa WNW 6.1 km/h 27.4 km/h 42% 0 mm 951 W/m2
11:19 23.9 °C 10 °C 1008.4 hPa WNW 11.3 km/h 27.4 km/h 41.5% 0 mm 956 W/m2
11:24 23.9 °C 9.8 °C 1008.4 hPa WNW 8 km/h 27.4 km/h 41.1% 0 mm 962 W/m2
11:29 23.8 °C 9.9 °C 1008.4 hPa NW 8 km/h 27.4 km/h 41.2% 0 mm 970 W/m2
11:34 23.8 °C 9.6 °C 1008.4 hPa WNW 8.5 km/h 27.4 km/h 40.7% 0 mm 976 W/m2
11:39 23.8 °C 9.9 °C 1008.4 hPa NW 5.5 km/h 25.7 km/h 41.6% 0 mm 979 W/m2
11:44 23.9 °C 10.1 °C 1008.4 hPa WNW 6 km/h 25.7 km/h 41.7% 0 mm 986 W/m2
11:49 23.9 °C 9.6 °C 1008.4 hPa WNW 8 km/h 25.7 km/h 40.1% 0 mm 988 W/m2
11:54 23.9 °C 9.3 °C 1008.7 hPa WNW 10.5 km/h 25.7 km/h 39.6% 0 mm 991 W/m2
11:59 23.7 °C 8.7 °C 1008.7 hPa WNW 9.2 km/h 25.7 km/h 38.4% 0 mm 1000 W/m2
12:04 23.6 °C 8.9 °C 1008.7 hPa WNW 15.6 km/h 25.7 km/h 39.3% 0 mm 1000 W/m2
12:09 23.4 °C 9 °C 1008.7 hPa NW 9.5 km/h 24.1 km/h 39.7% 0 mm 1009 W/m2
12:14 23.4 °C 9 °C 1008.7 hPa West 8.9 km/h 24.1 km/h 39.9% 0 mm 1009 W/m2
12:19 23.4 °C 8.9 °C 1008.7 hPa WNW 5.5 km/h 24.1 km/h 39.7% 0 mm 1014 W/m2
12:24 23.6 °C 9.4 °C 1008.7 hPa WNW 7.2 km/h 24.1 km/h 40.6% 0 mm 1016 W/m2
12:29 23.7 °C 9.5 °C 1008.7 hPa West 4.7 km/h 24.1 km/h 40.6% 0 mm 1014 W/m2
12:34 23.8 °C 10.2 °C 1008.7 hPa NW 6.6 km/h 24.1 km/h 42.5% 0 mm 1016 W/m2
12:39 23.8 °C 9.9 °C 1008.7 hPa West 7.6 km/h 22.5 km/h 41.5% 0 mm 1020 W/m2
12:44 23.9 °C 10.3 °C 1008.7 hPa WNW 3.7 km/h 22.5 km/h 42.5% 0 mm 1025 W/m2
12:49 24 °C 9.9 °C 1008.7 hPa WNW 8.7 km/h 25.7 km/h 40.9% 0 mm 1039 W/m2
12:54 23.9 °C 9.7 °C 1008.7 hPa WNW 8.4 km/h 25.7 km/h 40.3% 0 mm 1027 W/m2
12:59 23.8 °C 9 °C 1008.7 hPa WNW 9.3 km/h 25.7 km/h 38.8% 0 mm 1028 W/m2
13:04 23.6 °C 8.9 °C 1008.7 hPa NW 5.3 km/h 25.7 km/h 39.1% 0 mm 1028 W/m2
13:09 23.7 °C 9.3 °C 1008.7 hPa NNW 4 km/h 17.7 km/h 40.1% 0 mm 1037 W/m2
13:14 23.8 °C 10.1 °C 1008.7 hPa West 4 km/h 22.5 km/h 42% 0 mm 1025 W/m2
13:19 23.9 °C 9.9 °C 1008.7 hPa West 6.4 km/h 22.5 km/h 41% 0 mm 1037 W/m2
13:24 24 °C 10.1 °C 1008.7 hPa West 7.7 km/h 22.5 km/h 41.2% 0 mm 1051 W/m2
13:29 23.9 °C 9.9 °C 1008.7 hPa WNW 7.1 km/h 22.5 km/h 41.2% 0 mm 1051 W/m2
13:34 23.8 °C 9.1 °C 1008.7 hPa NNW 6.4 km/h 22.5 km/h 39.2% 0 mm 1025 W/m2
13:39 23.8 °C 9.4 °C 1008.7 hPa NW 2.7 km/h 22.5 km/h 40% 0 mm 1034 W/m2
13:44 23.9 °C 9.9 °C 1008.7 hPa WNW 5.5 km/h 22.5 km/h 41.2% 0 mm 1141 W/m2
13:49 23.9 °C 10.2 °C 1008.7 hPa WNW 3.7 km/h 22.5 km/h 41.8% 0 mm 1141 W/m2
13:54 23.9 °C 10.2 °C 1008.4 hPa WNW 2.7 km/h 22.5 km/h 42% 0 mm 1086 W/m2
13:59 23.9 °C 9.9 °C 1008.7 hPa WNW 6.9 km/h 24.1 km/h 40.9% 0 mm 1030 W/m2
14:04 24 °C 9.6 °C 1008.7 hPa West 3.4 km/h 24.1 km/h 40.1% 0 mm 1011 W/m2
14:09 24.2 °C 10.3 °C 1008.7 hPa WNW 5.3 km/h 24.1 km/h 41.6% 0 mm 1011 W/m2
14:14 24.4 °C 10.1 °C 1008.7 hPa WNW 7.7 km/h 24.1 km/h 40.3% 0 mm 1020 W/m2
14:19 24.4 °C 9.9 °C 1008.7 hPa WNW 6 km/h 24.1 km/h 39.8% 0 mm 1020 W/m2
14:24 24.3 °C 10 °C 1008.7 hPa NW 5.6 km/h 24.1 km/h 40.5% 0 mm 986 W/m2
14:29 24.3 °C 9.9 °C 1008.7 hPa WNW 4.2 km/h 24.1 km/h 40.2% 0 mm 1027 W/m2
14:34 24.3 °C 9.3 °C 1008.7 hPa WNW 5 km/h 24.1 km/h 38.6% 0 mm 1007 W/m2
14:39 24.1 °C 9.1 °C 1008.7 hPa WNW 11.3 km/h 27.4 km/h 38.7% 0 mm 990 W/m2
14:44 23.9 °C 9.4 °C 1008.7 hPa West 6.1 km/h 27.4 km/h 39.8% 0 mm 976 W/m2
14:49 24.1 °C 9.8 °C 1008.7 hPa WNW 3.7 km/h 27.4 km/h 40.4% 0 mm 954 W/m2
14:54 24.3 °C 10.3 °C 1008.7 hPa WNW 3.4 km/h 27.4 km/h 41.4% 0 mm 962 W/m2
14:58 24.6 °C 10.7 °C 1008.7 hPa WNW 9.5 km/h 27.4 km/h 41.6% 0 mm 970 W/m2
Hartford County Weather
Compliments of Weather Underground - 4 mb